Time;durP1;ratioP1;P1;durP2;ratioP2;P2;SDS_P1;SDS_P2;PMS_P1;PMS_P2;Temp;Humidity;BMP_temperature;BMP_pressure;BME280_temperature;BME280_humidity;BME280_pressure;Samples;Min_cycle;Max_cycle;Signal;HPM_P1;HPM_P2
2021/12/01 00:00:21;;;;;;;8.98;4.13;;;9.90;99.90;;;;;;4895563;29;20032;-58
2021/12/01 00:02:54;;;;;;;9.07;3.88;;;10.00;99.90;;;;;;4895489;29;20041;-58
2021/12/01 00:05:25;;;;;;;11.00;3.70;;;10.10;99.90;;;;;;4895125;29;20112;-58
2021/12/01 00:07:52;;;;;;;9.43;3.50;;;10.10;99.90;;;;;;4896089;29;20039;-58
2021/12/01 00:10:19;;;;;;;8.82;3.38;;;10.20;99.90;;;;;;4896396;29;20084;-58
2021/12/01 00:12:45;;;;;;;7.82;3.88;;;10.10;99.90;;;;;;4891162;29;20445;-59
2021/12/01 00:15:11;;;;;;;12.55;4.18;;;10.20;99.90;;;;;;4895681;29;20390;-58
2021/12/01 00:17:37;;;;;;;9.77;3.20;;;10.20;99.90;;;;;;4893958;29;20112;-59
2021/12/01 00:20:06;;;;;;;10.10;3.35;;;10.30;99.90;;;;;;4898624;29;20119;-59
2021/12/01 00:22:32;;;;;;;9.93;3.60;;;10.40;99.90;;;;;;4900805;29;20025;-58
2021/12/01 00:24:57;;;;;;;9.25;3.58;;;10.40;99.90;;;;;;4895269;29;20048;-59
2021/12/01 00:27:23;;;;;;;8.93;3.17;;;10.40;99.90;;;;;;4899077;29;20029;-58
2021/12/01 00:29:49;;;;;;;7.65;3.05;;;10.40;99.90;;;;;;4895041;29;20422;-57
2021/12/01 00:32:16;;;;;;;11.00;3.20;;;10.30;99.90;;;;;;4899044;29;20095;-59
2021/12/01 00:34:42;;;;;;;8.85;2.92;;;10.30;99.90;;;;;;4899191;29;20485;-58
2021/12/01 00:37:09;;;;;;;9.15;3.15;;;10.30;99.90;;;;;;4895407;29;20056;-58
2021/12/01 00:39:35;;;;;;;8.10;3.08;;;10.40;99.90;;;;;;4898652;29;20115;-59
2021/12/01 00:42:01;;;;;;;8.63;2.80;;;10.40;99.90;;;;;;4894337;29;20124;-58
2021/12/01 00:44:31;;;;;;;7.80;2.83;;;10.30;99.90;;;;;;4899166;29;20679;-57
2021/12/01 00:49:35;;;;;;;9.90;3.45;;;10.40;99.90;;;;;;4900072;29;20029;-59
2021/12/01 00:52:03;;;;;;;8.00;3.17;;;10.40;99.90;;;;;;4894734;29;20056;-59
2021/12/01 00:54:28;;;;;;;6.80;2.80;;;10.50;99.90;;;;;;4894309;29;20074;-59
2021/12/01 00:56:54;;;;;;;10.70;2.97;;;10.50;99.90;;;;;;4894740;29;20566;-59
2021/12/01 00:59:20;;;;;;;6.97;3.03;;;10.50;99.90;;;;;;4897376;29;20028;-59
2021/12/01 01:01:46;;;;;;;9.57;3.05;;;10.30;99.90;;;;;;4896149;29;20021;-59
2021/12/01 01:04:12;;;;;;;11.27;3.65;;;10.30;99.90;;;;;;4898496;29;20033;-59
2021/12/01 01:06:38;;;;;;;14.15;3.65;;;10.30;99.90;;;;;;4894213;29;20032;-59
2021/12/01 01:09:06;;;;;;;9.57;3.63;;;10.30;99.90;;;;;;4898449;29;20063;-59
2021/12/01 01:17:08;;;;;;;9.57;3.78;;;10.50;99.90;;;;;;4883363;29;20035;-59
2021/12/01 01:19:37;;;;;;;10.75;3.70;;;10.60;99.90;;;;;;4899695;29;20032;-59
2021/12/01 01:22:04;;;;;;;7.90;3.70;;;10.60;99.90;;;;;;4898227;29;20123;-59
2021/12/01 01:24:31;;;;;;;12.02;3.95;;;10.60;99.90;;;;;;4898151;29;20043;-59
2021/12/01 01:26:57;;;;;;;10.48;4.13;;;10.70;99.90;;;;;;4898036;29;20088;-59
2021/12/01 01:29:24;;;;;;;13.20;4.28;;;10.60;99.90;;;;;;4897260;29;20036;-59
2021/12/01 01:31:52;;;;;;;11.43;4.32;;;10.50;99.90;;;;;;4897721;29;20025;-59
2021/12/01 01:34:18;;;;;;;14.75;4.68;;;10.50;99.90;;;;;;4899508;29;20036;-59
2021/12/01 01:36:44;;;;;;;11.15;4.43;;;10.50;99.90;;;;;;4897784;29;20029;-59
2021/12/01 01:39:10;;;;;;;11.18;4.53;;;10.50;99.90;;;;;;4897766;29;20036;-59
2021/12/01 01:41:36;;;;;;;14.23;5.15;;;10.60;99.90;;;;;;4881027;29;20044;-59
2021/12/01 01:44:02;;;;;;;12.63;4.70;;;10.60;99.90;;;;;;4883146;29;20051;-59
2021/12/01 01:46:37;;;;;;;11.40;5.00;;;10.70;99.90;;;;;;4894620;29;20555;-59
2021/12/01 01:49:11;;;;;;;12.68;5.15;;;10.70;99.90;;;;;;4893543;29;20029;-59
2021/12/01 01:51:40;;;;;;;13.98;4.97;;;10.70;99.90;;;;;;4898106;29;20024;-59
2021/12/01 01:54:05;;;;;;;12.35;5.10;;;10.80;99.90;;;;;;4894498;29;20089;-59
2021/12/01 01:56:31;;;;;;;12.93;5.38;;;10.80;99.90;;;;;;4885610;29;20028;-59
2021/12/01 01:58:57;;;;;;;12.68;5.63;;;10.80;99.90;;;;;;4897931;29;20025;-59
2021/12/01 02:03:49;;;;;;;11.43;5.13;;;10.80;99.90;;;;;;4897346;29;20033;-59
2021/12/01 02:06:22;;;;;;;12.45;5.82;;;10.90;99.90;;;;;;4897566;29;20028;-59
2021/12/01 02:08:48;;;;;;;10.38;5.90;;;10.80;99.90;;;;;;4893364;29;20021;-59
2021/12/01 02:11:17;;;;;;;14.57;5.97;;;10.90;99.90;;;;;;4897108;29;20043;-59
2021/12/01 02:13:44;;;;;;;15.68;5.97;;;10.80;99.90;;;;;;4897725;29;20037;-58
2021/12/01 02:16:11;;;;;;;10.77;5.38;;;10.80;99.90;;;;;;4893969;29;20152;-59
2021/12/01 02:18:38;;;;;;;12.85;5.85;;;10.80;99.90;;;;;;4897237;29;20048;-57
2021/12/01 02:21:06;;;;;;;12.25;4.97;;;10.80;99.90;;;;;;4897556;29;20044;-59
2021/12/01 02:23:34;;;;;;;11.48;5.20;;;10.90;99.90;;;;;;4897258;29;20413;-59
2021/12/01 02:25:59;;;;;;;9.90;5.47;;;10.90;99.90;;;;;;4897029;29;20024;-59
2021/12/01 02:28:25;;;;;;;10.50;5.15;;;10.90;99.90;;;;;;4898194;29;20048;-59
2021/12/01 02:30:52;;;;;;;10.52;5.05;;;10.90;99.90;;;;;;4897227;29;20048;-59
2021/12/01 02:33:17;;;;;;;9.77;5.10;;;10.80;99.90;;;;;;4896766;29;20071;-59
2021/12/01 02:35:43;;;;;;;9.45;4.80;;;10.90;99.90;;;;;;4896742;29;20478;-59
2021/12/01 02:38:09;;;;;;;9.68;4.93;;;10.80;99.90;;;;;;4882282;29;20032;-60
2021/12/01 02:40:35;;;;;;;8.73;4.32;;;10.90;99.90;;;;;;4893970;29;20036;-60
2021/12/01 02:43:00;;;;;;;9.90;4.82;;;10.90;99.90;;;;;;4896712;29;20454;-59
2021/12/01 02:45:26;;;;;;;11.65;5.13;;;10.90;99.90;;;;;;4896315;29;20079;-59
2021/12/01 02:47:52;;;;;;;7.05;4.20;;;10.80;99.90;;;;;;4892598;29;20132;-59
2021/12/01 02:50:18;;;;;;;8.85;4.35;;;10.80;99.90;;;;;;4878781;29;20460;-59
2021/12/01 02:52:44;;;;;;;8.38;4.20;;;10.90;99.90;;;;;;4877121;29;20107;-60
2021/12/01 02:55:11;;;;;;;11.60;4.55;;;10.90;99.90;;;;;;4893299;29;20029;-59
2021/12/01 02:57:51;;;;;;;8.23;4.50;;;10.80;99.90;;;;;;4875235;29;20029;-60
2021/12/01 03:00:19;;;;;;;10.00;4.05;;;10.80;99.90;;;;;;4892454;29;20048;-59
2021/12/01 03:02:46;;;;;;;9.77;4.68;;;10.90;99.90;;;;;;4896283;29;20044;-59
2021/12/01 03:05:14;;;;;;;8.85;4.25;;;10.80;99.90;;;;;;4896721;29;20063;-59
2021/12/01 03:07:42;;;;;;;9.13;4.22;;;10.90;99.90;;;;;;4897332;29;20025;-59
2021/12/01 03:10:08;;;;;;;10.63;4.93;;;10.90;99.90;;;;;;4896623;29;20032;-59
2021/12/01 03:12:36;;;;;;;7.82;4.00;;;10.90;99.90;;;;;;4895949;29;20052;-59
2021/12/01 03:15:02;;;;;;;9.23;4.07;;;10.90;99.90;;;;;;4896453;29;20033;-59
2021/12/01 03:17:32;;;;;;;10.15;4.20;;;10.90;99.90;;;;;;4896417;29;20025;-59
2021/12/01 03:19:58;;;;;;;9.15;4.20;;;10.90;99.90;;;;;;4895943;29;20025;-60
2021/12/01 03:22:24;;;;;;;8.15;4.13;;;10.90;99.90;;;;;;4893177;29;20028;-60
2021/12/01 03:24:51;;;;;;;6.88;4.32;;;10.90;99.90;;;;;;4896265;29;20207;-59
2021/12/01 03:27:17;;;;;;;9.52;4.20;;;10.90;99.90;;;;;;4891265;29;20494;-58
2021/12/01 03:29:46;;;;;;;8.25;3.97;;;10.90;99.90;;;;;;4896232;29;20040;-60
2021/12/01 03:32:13;;;;;;;16.70;4.80;;;10.80;99.90;;;;;;4895891;29;20128;-59
2021/12/01 03:34:41;;;;;;;7.97;4.50;;;10.80;99.90;;;;;;4893661;29;20063;-60
2021/12/01 03:37:07;;;;;;;8.07;4.10;;;10.80;99.90;;;;;;4896619;29;20067;-59
2021/12/01 03:39:33;;;;;;;12.75;5.28;;;10.70;99.90;;;;;;4891897;29;20108;-59
2021/12/01 03:41:59;;;;;;;7.82;4.22;;;10.70;99.90;;;;;;4895337;29;20124;-59
2021/12/01 03:44:24;;;;;;;10.80;5.10;;;10.80;99.90;;;;;;4896004;29;20466;-59
2021/12/01 03:46:51;;;;;;;7.55;4.15;;;10.90;99.90;;;;;;4896133;29;20028;-60
2021/12/01 03:49:17;;;;;;;12.20;4.78;;;10.80;99.90;;;;;;4896649;29;20460;-59
2021/12/01 03:51:43;;;;;;;11.90;4.82;;;10.70;99.90;;;;;;4895021;29;20020;-59
2021/12/01 03:54:09;;;;;;;7.35;4.40;;;10.70;99.90;;;;;;4895967;29;20033;-59
2021/12/01 03:56:35;;;;;;;9.05;4.68;;;10.80;99.90;;;;;;4895336;29;20039;-59
2021/12/01 03:59:02;;;;;;;9.93;5.20;;;10.70;99.90;;;;;;4895868;29;20115;-60
2021/12/01 04:01:27;;;;;;;9.60;4.50;;;10.70;99.90;;;;;;4892523;29;20037;-59
2021/12/01 04:03:53;;;;;;;8.88;4.60;;;10.70;99.90;;;;;;4895420;29;20033;-59
2021/12/01 04:06:19;;;;;;;11.13;3.97;;;10.80;99.90;;;;;;4895709;29;20031;-60
2021/12/01 04:08:45;;;;;;;7.15;4.05;;;10.80;99.90;;;;;;4895438;29;20084;-60
2021/12/01 04:11:10;;;;;;;7.00;4.35;;;10.80;99.90;;;;;;4895116;29;20474;-59
2021/12/01 04:13:36;;;;;;;8.93;3.95;;;10.80;99.90;;;;;;4892906;29;20028;-60
2021/12/01 04:16:02;;;;;;;8.15;3.97;;;10.80;99.90;;;;;;4895308;29;20052;-60
2021/12/01 04:18:28;;;;;;;7.40;4.50;;;10.90;99.90;;;;;;4895207;29;20040;-59
2021/12/01 04:20:53;;;;;;;8.00;4.35;;;10.90;99.90;;;;;;4895303;29;20025;-60
2021/12/01 04:23:20;;;;;;;9.00;3.50;;;10.90;99.90;;;;;;4878369;29;20041;-59
2021/12/01 04:25:45;;;;;;;10.52;4.47;;;10.90;99.90;;;;;;4884138;29;20012;-59
2021/12/01 04:28:11;;;;;;;8.02;4.20;;;10.90;99.90;;;;;;4896327;29;20036;-60
2021/12/01 04:30:37;;;;;;;9.77;4.50;;;10.80;99.90;;;;;;4895337;29;20028;-60
2021/12/01 04:33:04;;;;;;;9.77;3.83;;;10.90;99.90;;;;;;4895092;29;20041;-60
2021/12/01 04:35:30;;;;;;;6.20;3.88;;;10.90;99.90;;;;;;4895156;29;20394;-59
2021/12/01 04:37:57;;;;;;;6.95;4.30;;;11.00;99.90;;;;;;4895530;29;20033;-59
2021/12/01 04:40:23;;;;;;;9.32;4.47;;;10.90;99.90;;;;;;4891993;29;20037;-60
2021/12/01 04:42:49;;;;;;;9.63;4.60;;;11.00;99.90;;;;;;4890896;29;20368;-60
2021/12/01 04:45:17;;;;;;;10.45;3.65;;;10.90;99.90;;;;;;4894821;29;20081;-59
2021/12/01 04:47:54;;;;;;;8.13;3.53;;;11.00;99.90;;;;;;4894919;29;20021;-59
2021/12/01 04:50:23;;;;;;;11.15;4.25;;;11.10;99.90;;;;;;4893991;29;20052;-59
2021/12/01 04:52:55;;;;;;;5.60;3.25;;;11.10;99.90;;;;;;4893316;29;20021;-59
2021/12/01 04:55:22;;;;;;;12.95;4.05;;;11.20;99.90;;;;;;4883358;29;20033;-59
2021/12/01 04:57:49;;;;;;;9.15;3.40;;;11.20;99.90;;;;;;4888637;29;20024;-59
2021/12/01 05:00:20;;;;;;;9.93;3.60;;;11.10;99.90;;;;;;4890897;29;20025;-59
2021/12/01 05:02:46;;;;;;;11.68;4.15;;;11.20;99.90;;;;;;4894800;29;20057;-59
2021/12/01 05:05:12;;;;;;;9.60;3.58;;;11.20;99.90;;;;;;4897851;29;20448;-59
2021/12/01 05:07:38;;;;;;;9.00;3.47;;;11.20;99.90;;;;;;4899915;29;20047;-60
2021/12/01 05:10:05;;;;;;;12.15;3.25;;;11.30;99.90;;;;;;4898012;29;20039;-59
2021/12/01 05:12:30;;;;;;;14.82;3.40;;;11.40;99.90;;;;;;4898268;29;20112;-59
2021/12/01 05:14:56;;;;;;;9.60;2.88;;;11.60;99.90;;;;;;4898417;29;20115;-60
2021/12/01 05:17:22;;;;;;;9.00;2.53;;;11.80;99.90;;;;;;4898756;29;20506;-60
2021/12/01 05:19:48;;;;;;;9.50;3.10;;;11.90;99.90;;;;;;4898545;29;20095;-60
2021/12/01 05:22:14;;;;;;;11.77;2.40;;;11.90;99.90;;;;;;4899394;29;20103;-59
2021/12/01 05:24:40;;;;;;;6.28;2.35;;;12.00;99.90;;;;;;4894068;29;20040;-59
2021/12/01 05:27:06;;;;;;;10.13;2.45;;;12.10;99.90;;;;;;4893715;29;20035;-59
2021/12/01 05:29:32;;;;;;;11.15;2.33;;;12.10;99.90;;;;;;4895458;29;20064;-59
2021/12/01 05:31:57;;;;;;;4.70;2.03;;;12.10;99.90;;;;;;4896800;29;20111;-60
2021/12/01 05:34:24;;;;;;;10.02;2.20;;;12.10;99.90;;;;;;4899355;29;20487;-59
2021/12/01 05:36:50;;;;;;;9.48;2.42;;;12.40;99.90;;;;;;4893625;29;20490;-59
2021/12/01 05:39:17;;;;;;;10.35;2.58;;;12.40;99.90;;;;;;4894192;29;20029;-59
2021/12/01 05:41:43;;;;;;;14.38;3.08;;;12.40;99.90;;;;;;4898037;29;20083;-60
2021/12/01 05:44:09;;;;;;;17.95;3.05;;;12.40;99.90;;;;;;4882908;29;20040;-60
2021/12/01 05:46:34;;;;;;;17.08;3.42;;;12.40;99.90;;;;;;4899214;29;20031;-59
2021/12/01 05:49:01;;;;;;;24.90;3.70;;;12.40;99.90;;;;;;4898060;29;20413;-58
2021/12/01 05:51:26;;;;;;;23.63;4.32;;;12.40;99.90;;;;;;4897429;29;20406;-59
2021/12/01 05:53:52;;;;;;;17.15;4.03;;;12.40;99.90;;;;;;4897851;29;20032;-59
2021/12/01 05:56:18;;;;;;;21.65;4.32;;;12.50;99.90;;;;;;4897552;29;20033;-59
2021/12/01 05:58:44;;;;;;;25.58;4.72;;;12.50;99.90;;;;;;4881250;29;20402;-60
2021/12/01 06:01:09;;;;;;;19.10;4.60;;;12.60;99.90;;;;;;4898569;29;20025;-59
2021/12/01 06:03:35;;;;;;;23.70;4.07;;;12.60;99.90;;;;;;4897559;29;20037;-59
2021/12/01 06:06:01;;;;;;;16.92;3.88;;;12.60;99.90;;;;;;4897157;29;20586;-60
2021/12/01 06:08:27;;;;;;;18.45;3.70;;;12.60;99.90;;;;;;4897514;29;20029;-59
2021/12/01 06:10:53;;;;;;;19.40;3.90;;;12.60;99.90;;;;;;4898079;29;20370;-59
2021/12/01 06:13:20;;;;;;;20.25;4.45;;;12.60;99.90;;;;;;4898210;29;20104;-60
2021/12/01 06:15:49;;;;;;;16.77;3.70;;;12.60;99.90;;;;;;4892861;29;20036;-59
2021/12/01 06:18:16;;;;;;;19.17;3.88;;;12.60;99.90;;;;;;4893352;29;20031;-60
2021/12/01 06:20:44;;;;;;;19.38;4.15;;;12.70;99.90;;;;;;4897005;29;20493;-59
2021/12/01 06:23:10;;;;;;;18.20;3.50;;;12.70;99.90;;;;;;4882262;29;20068;-60
2021/12/01 06:25:36;;;;;;;17.27;3.83;;;12.70;99.90;;;;;;4898519;29;20105;-60
2021/12/01 06:28:03;;;;;;;21.27;4.50;;;12.70;99.90;;;;;;4897085;29;20032;-59
2021/12/01 06:30:34;;;;;;;18.52;4.30;;;12.70;99.90;;;;;;4897203;29;20119;-59
2021/12/01 06:33:01;;;;;;;21.10;4.13;;;12.70;99.90;;;;;;4897007;29;20422;-59
2021/12/01 06:35:26;;;;;;;23.33;4.00;;;12.70;99.90;;;;;;4896529;29;20029;-60
2021/12/01 06:37:55;;;;;;;24.88;4.50;;;12.70;99.90;;;;;;4897373;29;20032;-60
2021/12/01 06:40:21;;;;;;;23.98;4.10;;;12.80;99.90;;;;;;4885483;29;20033;-59
2021/12/01 06:42:47;;;;;;;24.38;3.92;;;12.80;99.90;;;;;;4890508;29;20036;-59
2021/12/01 06:45:13;;;;;;;28.08;5.07;;;12.80;99.90;;;;;;4896617;29;20418;-59
2021/12/01 06:47:40;;;;;;;20.90;4.45;;;12.80;99.90;;;;;;4893351;29;20062;-59
2021/12/01 06:50:07;;;;;;;22.58;4.32;;;12.80;99.90;;;;;;4896126;29;20563;-59
2021/12/01 06:52:33;;;;;;;27.73;4.57;;;12.90;99.90;;;;;;4897984;29;20036;-60
2021/12/01 06:55:01;;;;;;;18.40;3.83;;;12.90;99.90;;;;;;4896735;29;20486;-59
2021/12/01 06:57:27;;;;;;;23.42;4.82;;;12.90;99.90;;;;;;4892790;29;20087;-60
2021/12/01 06:59:53;;;;;;;22.80;4.07;;;12.90;99.90;;;;;;4896450;29;20028;-60
2021/12/01 07:02:19;;;;;;;21.90;4.20;;;12.90;99.90;;;;;;4896650;29;20028;-60
2021/12/01 07:04:45;;;;;;;30.60;4.90;;;12.90;99.90;;;;;;4896049;29;20502;-59
2021/12/01 07:07:11;;;;;;;18.38;3.70;;;12.90;99.90;;;;;;4893335;29;20035;-59
2021/12/01 07:09:37;;;;;;;18.20;4.20;;;12.90;99.90;;;;;;4896166;29;20029;-59
2021/12/01 07:12:03;;;;;;;22.77;3.90;;;12.90;99.90;;;;;;4891760;29;20033;-59
2021/12/01 07:14:29;;;;;;;26.52;4.32;;;12.90;99.90;;;;;;4896076;29;20099;-60
2021/12/01 07:16:55;;;;;;;20.27;4.28;;;12.90;99.90;;;;;;4896580;29;20044;-60
2021/12/01 07:19:21;;;;;;;30.38;4.18;;;12.90;99.90;;;;;;4882496;29;20025;-59
2021/12/01 07:21:47;;;;;;;26.00;4.25;;;12.90;99.90;;;;;;4885269;29;20142;-59
2021/12/01 07:24:13;;;;;;;24.17;4.50;;;12.80;99.90;;;;;;4885048;29;20497;-59
2021/12/01 07:26:39;;;;;;;24.15;4.50;;;12.80;99.90;;;;;;4891926;29;20051;-59
2021/12/01 07:29:05;;;;;;;25.10;4.65;;;12.90;99.90;;;;;;4895590;29;20490;-59
2021/12/01 07:31:31;;;;;;;25.15;4.40;;;12.90;99.90;;;;;;4897269;29;20022;-59
2021/12/01 07:33:57;;;;;;;22.00;4.50;;;12.90;99.90;;;;;;4895813;29;20036;-59
2021/12/01 07:36:23;;;;;;;22.40;4.63;;;12.90;99.90;;;;;;4896023;29;20035;-60
2021/12/01 07:38:50;;;;;;;22.63;4.72;;;12.90;99.90;;;;;;4878444;29;20471;-60
2021/12/01 07:41:17;;;;;;;24.20;4.15;;;12.90;99.90;;;;;;4881683;29;20043;-60
2021/12/01 07:43:43;;;;;;;17.75;4.20;;;12.90;99.90;;;;;;4896710;29;20128;-60
2021/12/01 07:46:08;;;;;;;22.77;4.18;;;12.90;99.90;;;;;;4896335;29;20135;-60
2021/12/01 07:48:36;;;;;;;23.08;4.57;;;12.90;99.90;;;;;;4895186;29;20489;-59
2021/12/01 07:51:03;;;;;;;20.92;4.28;;;12.90;99.90;;;;;;4895537;29;20510;-60
2021/12/01 07:53:29;;;;;;;22.55;4.15;;;12.90;99.90;;;;;;4895896;29;20032;-58
2021/12/01 07:55:54;;;;;;;20.25;3.80;;;12.90;99.90;;;;;;4895769;29;20394;-60
2021/12/01 07:58:20;;;;;;;16.88;4.35;;;12.90;99.90;;;;;;4896597;29;20402;-60
2021/12/01 08:00:46;;;;;;;20.15;3.55;;;12.90;99.90;;;;;;4895978;29;20494;-61
2021/12/01 08:03:11;;;;;;;25.98;4.93;;;12.90;99.90;;;;;;4895111;29;20417;-60
2021/12/01 08:05:37;;;;;;;20.42;3.90;;;12.90;99.90;;;;;;4895674;29;20041;-60
2021/12/01 08:08:05;;;;;;;18.63;3.58;;;12.90;99.90;;;;;;4895452;29;20023;-61
2021/12/01 08:10:31;;;;;;;18.75;4.07;;;12.90;99.90;;;;;;4896964;29;20413;-61
2021/12/01 08:13:00;;;;;;;20.55;3.88;;;12.90;99.90;;;;;;4895529;29;20051;-61
2021/12/01 08:15:25;;;;;;;13.40;3.30;;;12.90;99.90;;;;;;4891295;29;20040;-60
2021/12/01 08:17:52;;;;;;;15.50;3.00;;;12.90;99.90;;;;;;4894961;29;20059;-61
2021/12/01 08:20:18;;;;;;;15.30;3.53;;;12.80;99.90;;;;;;4895653;29;20033;-59
2021/12/01 08:22:44;;;;;;;12.38;3.10;;;12.90;99.90;;;;;;4895798;29;20024;-59
2021/12/01 08:25:10;;;;;;;12.40;2.80;;;12.90;99.90;;;;;;4896039;29;20032;-59
2021/12/01 08:27:36;;;;;;;16.58;3.47;;;12.80;99.90;;;;;;4894924;29;20060;-61
2021/12/01 08:30:02;;;;;;;11.55;3.13;;;12.70;99.90;;;;;;4894018;29;20134;-58
2021/12/01 08:32:27;;;;;;;16.33;3.35;;;12.70;99.90;;;;;;4888797;29;20542;-62
2021/12/01 08:34:53;;;;;;;12.40;2.55;;;12.70;99.90;;;;;;4895496;29;20108;-61
2021/12/01 08:37:20;;;;;;;15.98;3.17;;;12.70;99.90;;;;;;4896127;29;20562;-60
2021/12/01 08:39:50;;;;;;;13.23;2.95;;;12.60;99.90;;;;;;4894316;29;20431;-60
2021/12/01 08:42:20;;;;;;;20.77;3.40;;;12.60;99.90;;;;;;4898528;29;20051;-60
2021/12/01 08:44:47;;;;;;;15.15;2.92;;;12.50;99.90;;;;;;4894509;29;20507;-60
2021/12/01 08:47:21;;;;;;;16.85;2.83;;;12.50;99.90;;;;;;4898820;29;20032;-61
2021/12/01 08:49:47;;;;;;;10.35;2.03;;;12.60;99.90;;;;;;4899337;29;20028;-59
2021/12/01 08:52:13;;;;;;;8.10;1.88;;;12.60;99.90;;;;;;4895524;29;20044;-59
2021/12/01 08:54:39;;;;;;;7.57;1.88;;;12.60;99.90;;;;;;4898475;29;20058;-60
2021/12/01 08:57:06;;;;;;;6.10;1.60;;;12.60;99.90;;;;;;4890985;29;20418;-60
2021/12/01 08:59:32;;;;;;;5.10;1.60;;;12.60;99.90;;;;;;4886402;29;20364;-60
2021/12/01 09:02:00;;;;;;;5.93;1.70;;;12.60;99.90;;;;;;4898259;29;20071;-60
2021/12/01 09:04:26;;;;;;;7.05;1.40;;;12.40;99.90;;;;;;4899956;29;20044;-61
2021/12/01 09:06:52;;;;;;;8.43;1.83;;;12.40;99.90;;;;;;4898664;29;20032;-59
2021/12/01 09:09:18;;;;;;;6.03;1.60;;;12.40;99.90;;;;;;4898296;29;20037;-61
2021/12/01 09:11:50;;;;;;;8.77;2.53;;;12.30;99.90;;;;;;4898413;29;20032;-60
2021/12/01 09:14:16;;;;;;;9.23;2.42;;;12.30;99.90;;;;;;4867577;29;20768;-60
2021/12/01 09:16:43;;;;;;;13.98;2.65;;;12.30;99.90;;;;;;4899348;29;20024;-60
2021/12/01 09:19:09;;;;;;;5.53;2.22;;;12.40;99.90;;;;;;4899322;29;20045;-60
2021/12/01 09:21:36;;;;;;;7.43;2.30;;;12.40;99.90;;;;;;4898347;29;20443;-59
2021/12/01 09:24:03;;;;;;;9.23;1.77;;;12.60;99.90;;;;;;4893914;29;20127;-60
2021/12/01 09:26:29;;;;;;;8.68;1.88;;;12.70;99.90;;;;;;4895909;29;20510;-60
2021/12/01 09:28:54;;;;;;;8.45;1.95;;;12.60;99.90;;;;;;4895748;29;20056;-61
2021/12/01 09:31:20;;;;;;;6.70;1.70;;;12.70;99.90;;;;;;4894677;29;20103;-60
2021/12/01 09:33:46;;;;;;;7.38;1.73;;;12.50;99.90;;;;;;4897949;29;20096;-60
2021/12/01 09:36:13;;;;;;;8.93;1.75;;;12.40;99.90;;;;;;4897362;29;20089;-60
2021/12/01 09:38:39;;;;;;;12.18;2.10;;;12.40;99.90;;;;;;4896800;29;20032;-60
2021/12/01 09:41:05;;;;;;;11.52;2.13;;;12.30;99.90;;;;;;4897986;29;20123;-59
2021/12/01 09:43:31;;;;;;;10.98;1.90;;;12.30;99.90;;;;;;4899077;29;20310;-60
2021/12/01 09:45:59;;;;;;;16.90;2.78;;;12.30;99.90;;;;;;4897622;29;20582;-60
2021/12/01 09:48:26;;;;;;;16.33;3.17;;;12.20;99.90;;;;;;4897383;29;20494;-59
2021/12/01 09:50:53;;;;;;;19.52;3.35;;;12.20;99.90;;;;;;4896983;29;20040;-60
2021/12/01 09:53:19;;;;;;;18.88;3.25;;;12.10;99.90;;;;;;4897255;29;20021;-61
2021/12/01 09:55:45;;;;;;;18.77;4.00;;;12.20;99.90;;;;;;4898626;29;20024;-61
2021/12/01 09:58:23;;;;;;;22.10;3.85;;;12.20;99.90;;;;;;4893789;29;20032;-62
2021/12/01 10:00:59;;;;;;;18.95;3.72;;;12.20;99.90;;;;;;4897590;29;20367;-60
2021/12/01 10:03:25;;;;;;;21.05;3.60;;;12.30;99.90;;;;;;4893221;29;20028;-59
2021/12/01 10:06:03;;;;;;;21.25;4.15;;;12.30;99.90;;;;;;4893444;29;20097;-60
2021/12/01 10:08:34;;;;;;;16.80;3.63;;;12.30;99.90;;;;;;4895324;29;20506;-61
2021/12/01 10:11:10;;;;;;;16.85;3.42;;;12.30;99.90;;;;;;4896540;29;20037;-60
2021/12/01 10:13:41;;;;;;;18.00;3.65;;;12.40;99.90;;;;;;4895490;29;20033;-60
2021/12/01 10:16:09;;;;;;;19.48;3.58;;;12.50;99.90;;;;;;4892117;29;20077;-61
2021/12/01 10:18:47;;;;;;;17.33;4.18;;;12.50;99.90;;;;;;4892256;29;20130;-60
2021/12/01 10:21:31;;;;;;;20.58;4.57;;;12.50;99.90;;;;;;4888860;29;20093;-59
2021/12/01 10:24:03;;;;;;;18.02;4.35;;;12.50;99.90;;;;;;4891829;29;20068;-60
2021/12/01 10:26:36;;;;;;;25.02;4.05;;;12.40;99.90;;;;;;4889517;29;20491;-61
2021/12/01 10:29:11;;;;;;;25.77;4.53;;;12.50;99.90;;;;;;4889418;29;20047;-61
2021/12/01 10:31:48;;;;;;;25.15;4.05;;;12.50;99.90;;;;;;4890321;29;20088;-61
2021/12/01 10:34:18;;;;;;;23.33;4.40;;;12.40;99.90;;;;;;4891221;29;20488;-60
2021/12/01 10:36:45;;;;;;;20.48;5.07;;;12.40;99.90;;;;;;4890716;29;20039;-60
2021/12/01 10:39:12;;;;;;;28.27;5.65;;;12.50;99.90;;;;;;4891914;29;20024;-59
2021/12/01 10:41:41;;;;;;;26.83;5.45;;;12.60;99.90;;;;;;4890000;29;20502;-59
2021/12/01 10:44:17;;;;;;;24.10;4.25;;;12.70;99.90;;;;;;4890210;29;20043;-61
2021/12/01 10:46:49;;;;;;;21.98;3.97;;;12.70;99.90;;;;;;4888372;29;20060;-60
2021/12/01 10:49:16;;;;;;;25.40;5.05;;;12.70;99.90;;;;;;4890280;29;20025;-59
2021/12/01 10:51:44;;;;;;;29.02;5.03;;;12.70;99.90;;;;;;4891681;29;20503;-59
2021/12/01 10:54:19;;;;;;;25.67;4.70;;;12.70;99.90;;;;;;4891709;29;20538;-60
2021/12/01 10:57:05;;;;;;;28.77;5.35;;;12.60;99.90;;;;;;4886580;29;20032;-59
2021/12/01 10:59:43;;;;;;;27.33;5.28;;;12.60;99.90;;;;;;4888909;29;20490;-59
2021/12/01 11:02:10;;;;;;;31.90;5.30;;;12.70;99.90;;;;;;4887817;29;20410;-60
2021/12/01 11:05:05;;;;;;;29.75;5.88;;;12.70;99.90;;;;;;4897674;29;20180;-63
2021/12/01 11:07:32;;;;;;;36.63;5.47;;;12.70;99.90;;;;;;4869760;29;20045;-63
2021/12/01 11:10:18;;;;;;;26.80;5.75;;;12.80;99.90;;;;;;4894701;29;20043;-65
2021/12/01 11:12:56;;;;;;;37.67;6.57;;;12.80;99.90;;;;;;4895350;29;20029;-65
2021/12/01 11:15:33;;;;;;;47.33;7.03;;;12.70;99.90;;;;;;4891783;29;20029;-65
2021/12/01 11:18:00;;;;;;;37.25;6.03;;;12.70;99.90;;;;;;4895623;29;20462;-64
2021/12/01 11:20:43;;;;;;;43.10;7.32;;;12.70;99.90;;;;;;4894186;29;20050;-64
2021/12/01 11:23:12;;;;;;;41.30;6.57;;;12.70;99.90;;;;;;4895263;29;20032;-63
2021/12/01 11:25:38;;;;;;;36.95;6.45;;;12.80;99.90;;;;;;4893436;29;20060;-61
2021/12/01 11:28:08;;;;;;;37.80;6.82;;;12.70;99.90;;;;;;4891742;29;20041;-64
2021/12/01 11:30:35;;;;;;;43.05;8.02;;;12.70;99.90;;;;;;4895977;29;20494;-59
2021/12/01 11:33:01;;;;;;;68.22;27.60;;;12.70;99.90;;;;;;4896133;29;20397;-59
2021/12/01 11:35:27;;;;;;;108.03;54.13;;;12.80;99.90;;;;;;4895925;29;20040;-60
2021/12/01 11:37:57;;;;;;;114.38;67.45;;;12.90;99.90;;;;;;4896432;29;20040;-59
2021/12/01 11:40:30;;;;;;;230.10;163.48;;;12.80;99.90;;;;;;4882340;29;20121;-59
2021/12/01 11:42:57;;;;;;;93.70;57.53;;;12.90;99.90;;;;;;4894452;29;20120;-59
2021/12/01 11:45:24;;;;;;;53.30;22.42;;;12.90;99.90;;;;;;4895443;29;20074;-59
2021/12/01 11:47:50;;;;;;;37.97;8.95;;;12.80;99.90;;;;;;4895663;29;20025;-59
2021/12/01 11:50:26;;;;;;;57.03;20.02;;;12.90;99.90;;;;;;4895770;29;20029;-60
2021/12/01 11:53:20;;;;;;;63.42;29.65;;;12.90;99.90;;;;;;4896060;29;20025;-60
2021/12/01 11:55:46;;;;;;;45.85;10.35;;;13.10;99.90;;;;;;4877394;29;20035;-59
2021/12/01 11:58:41;;;;;;;47.53;17.45;;;13.10;99.90;;;;;;4896312;29;20027;-60
2021/12/01 12:01:22;;;;;;;41.13;11.13;;;12.90;99.90;;;;;;4891185;29;20123;-59
2021/12/01 12:03:54;;;;;;;46.70;13.30;;;12.90;99.90;;;;;;4891272;29;20044;-59
2021/12/01 12:06:23;;;;;;;39.90;10.85;;;12.90;99.90;;;;;;4891467;29;20029;-59
2021/12/01 12:09:09;;;;;;;43.30;13.68;;;12.80;99.90;;;;;;4895077;29;20489;-59
2021/12/01 12:11:46;;;;;;;39.22;10.75;;;12.90;99.90;;;;;;4895303;29;20043;-62
2021/12/01 12:14:19;;;;;;;35.75;7.97;;;12.80;99.90;;;;;;4895427;29;20064;-61
2021/12/01 12:17:40;;;;;;;42.30;12.10;;;13.00;99.90;;;;;;4893084;29;20139;-59
2021/12/01 12:20:24;;;;;;;34.65;6.82;;;12.90;99.90;;;;;;4818873;29;20079;-63
2021/12/01 12:22:50;;;;;;;;;;;12.90;99.90;;;;;;4817017;29;20042;-61
2021/12/01 12:25:38;;;;;;;36.28;7.32;;;13.10;99.90;;;;;;4820413;29;20299;-61
2021/12/01 12:28:23;;;;;;;33.00;6.80;;;13.20;99.90;;;;;;4818933;29;20046;-61
2021/12/01 12:30:49;;;;;;;33.08;6.28;;;13.20;99.90;;;;;;4819425;29;20038;-61
2021/12/01 12:33:26;;;;;;;42.00;8.68;;;13.00;99.90;;;;;;4819101;29;20038;-61
2021/12/01 12:36:01;;;;;;;38.28;7.93;;;13.30;99.90;;;;;;4819203;29;20038;-61
2021/12/01 12:38:27;;;;;;;35.38;9.13;;;13.10;99.90;;;;;;4819055;29;20050;-61
2021/12/01 12:41:19;;;;;;;38.30;6.53;;;13.30;99.90;;;;;;4819697;29;20103;-60
2021/12/01 12:43:45;;;;;;;37.67;6.78;;;13.30;99.90;;;;;;4815826;29;20050;-60
2021/12/01 12:46:18;;;;;;;35.60;6.72;;;13.50;99.90;;;;;;4820167;29;20463;-61
2021/12/01 12:48:50;;;;;;;34.28;8.02;;;13.60;99.90;;;;;;4819001;29;20386;-61
2021/12/01 12:51:31;;;;;;;40.80;7.28;;;13.60;99.90;;;;;;4819074;29;20046;-61
2021/12/01 12:54:04;;;;;;;33.63;6.78;;;13.70;99.90;;;;;;4863348;29;20127;-61
2021/12/01 12:56:39;;;;;;;31.52;6.88;;;13.60;99.90;;;;;;4892496;29;20084;-61